createdAt,value
2018-09-06T00:01:04.330Z,762
2018-09-06T00:02:11.542Z,762
2018-09-06T00:03:18.757Z,761
2018-09-06T00:04:25.968Z,762
2018-09-06T00:05:33.186Z,762
2018-09-06T00:06:40.401Z,762
2018-09-06T00:07:47.613Z,764
2018-09-06T00:08:54.835Z,763
2018-09-06T00:10:02.051Z,763
2018-09-06T00:11:09.265Z,764
2018-09-06T00:12:16.483Z,764
2018-09-06T00:13:23.423Z,764
2018-09-06T00:14:30.644Z,763
2018-09-06T00:15:52.505Z,764
2018-09-06T00:16:59.718Z,763
2018-09-06T00:18:06.658Z,763
2018-09-06T00:19:13.871Z,764
2018-09-06T00:20:21.085Z,764
2018-09-06T00:21:28.303Z,764
2018-09-06T00:22:35.518Z,764
2018-09-06T00:23:42.729Z,764
2018-09-06T00:24:49.671Z,764
2018-09-06T00:25:56.884Z,764
2018-09-06T00:27:04.097Z,766
2018-09-06T00:28:11.310Z,764
2018-09-06T00:29:18.518Z,764
2018-09-06T00:30:25.731Z,764
2018-09-06T00:31:32.943Z,764
2018-09-06T00:32:40.168Z,764
2018-09-06T00:33:47.380Z,765
2018-09-06T00:34:54.592Z,765
2018-09-06T00:36:01.802Z,765
2018-09-06T00:37:09.016Z,764
2018-09-06T00:38:16.236Z,764
2018-09-06T00:39:23.448Z,765
2018-09-06T00:40:30.662Z,765
2018-09-06T00:41:37.876Z,764
2018-09-06T00:42:44.814Z,765
2018-09-06T00:43:52.027Z,764
2018-09-06T00:44:59.244Z,764
2018-09-06T00:46:06.458Z,765
2018-09-06T00:47:13.671Z,765
2018-09-06T00:48:20.600Z,766
2018-09-06T00:49:27.814Z,766
2018-09-06T00:50:35.029Z,766
2018-09-06T00:51:42.242Z,765
2018-09-06T00:52:49.453Z,766
2018-09-06T00:53:56.666Z,765
2018-09-06T00:55:03.890Z,766
2018-09-06T00:56:11.104Z,766
2018-09-06T00:57:18.316Z,765
2018-09-06T00:58:25.530Z,765
2018-09-06T00:59:32.741Z,765
2018-09-06T01:00:39.959Z,765
2018-09-06T01:01:47.171Z,765
2018-09-06T01:02:54.390Z,764
2018-09-06T01:04:01.607Z,765
2018-09-06T01:05:08.818Z,765
2018-09-06T01:06:16.036Z,764
2018-09-06T01:07:22.970Z,764
2018-09-06T01:08:30.179Z,765
2018-09-06T01:09:37.393Z,765
2018-09-06T01:10:44.604Z,763
2018-09-06T01:11:51.819Z,763
2018-09-06T01:12:59.032Z,764
2018-09-06T01:14:06.241Z,763
2018-09-06T01:15:13.458Z,763
2018-09-06T01:16:20.664Z,763
2018-09-06T01:17:27.872Z,764
2018-09-06T01:18:35.085Z,763
2018-09-06T01:19:42.025Z,762
2018-09-06T01:20:49.238Z,763
2018-09-06T01:21:56.450Z,763
2018-09-06T01:23:03.673Z,763
2018-09-06T01:24:10.884Z,764
2018-09-06T01:25:17.816Z,764
2018-09-06T01:26:24.752Z,763
2018-09-06T01:27:31.960Z,765
2018-09-06T01:28:39.171Z,764
2018-09-06T01:29:46.107Z,765
2018-09-06T01:30:53.320Z,763
2018-09-06T01:32:00.257Z,764
2018-09-06T01:33:07.467Z,764
2018-09-06T01:34:14.686Z,764
2018-09-06T01:35:21.623Z,764
2018-09-06T01:36:28.837Z,763
2018-09-06T01:37:36.049Z,763
2018-09-06T01:38:43.262Z,763
2018-09-06T01:39:50.475Z,763
2018-09-06T01:40:57.684Z,764
2018-09-06T01:42:04.895Z,763
2018-09-06T01:43:12.106Z,763
2018-09-06T01:44:19.321Z,763
2018-09-06T01:45:26.540Z,762
2018-09-06T01:46:33.757Z,763
2018-09-06T01:47:40.967Z,762
2018-09-06T01:48:48.179Z,762
2018-09-06T01:49:55.126Z,763
2018-09-06T01:51:02.333Z,763
2018-09-06T01:52:09.552Z,763
2018-09-06T01:53:16.761Z,763
2018-09-06T01:54:23.963Z,763
2018-09-06T01:55:31.174Z,762
2018-09-06T01:56:37.838Z,761
2018-09-06T01:57:44.785Z,763
2018-09-06T01:58:51.994Z,763
2018-09-06T01:59:59.210Z,763
2018-09-06T02:01:06.428Z,764
2018-09-06T02:02:13.637Z,761
2018-09-06T02:03:20.583Z,761
2018-09-06T02:04:27.798Z,762
2018-09-06T02:05:35.008Z,763
2018-09-06T02:06:42.217Z,762
2018-09-06T02:07:49.435Z,762
2018-09-06T02:08:56.646Z,762
2018-09-06T02:10:03.858Z,760
2018-09-06T02:11:11.072Z,762
2018-09-06T02:12:18.282Z,761
2018-09-06T02:13:25.500Z,761
2018-09-06T02:14:32.717Z,760
2018-09-06T02:15:39.924Z,760
2018-09-06T02:16:46.861Z,760
2018-09-06T02:17:54.071Z,759
2018-09-06T02:19:01.285Z,759
2018-09-06T02:20:08.503Z,760
2018-09-06T02:21:15.756Z,759
2018-09-06T02:22:22.969Z,757
2018-09-06T02:23:30.190Z,758
2018-09-06T02:24:37.117Z,758
2018-09-06T02:25:44.058Z,758
2018-09-06T02:26:51.264Z,758
2018-09-06T02:27:58.476Z,758
2018-09-06T02:29:05.689Z,757
2018-09-06T02:30:12.918Z,757
2018-09-06T02:31:20.122Z,757
2018-09-06T02:32:27.338Z,756
2018-09-06T02:33:34.551Z,757
2018-09-06T02:34:41.766Z,757
2018-09-06T02:35:48.704Z,757
2018-09-06T02:36:55.913Z,757
2018-09-06T02:38:03.123Z,756
2018-09-06T02:39:10.336Z,756
2018-09-06T02:40:17.548Z,757
2018-09-06T02:41:24.764Z,757
2018-09-06T02:42:31.987Z,755
2018-09-06T02:43:39.194Z,755
2018-09-06T02:44:46.410Z,754
2018-09-06T02:45:53.623Z,754
2018-09-06T02:47:00.835Z,754
2018-09-06T02:48:07.767Z,754
2018-09-06T02:49:14.981Z,755
2018-09-06T02:50:22.198Z,754
2018-09-06T02:51:29.409Z,756
2018-09-06T02:52:36.621Z,755
2018-09-06T02:53:43.939Z,755
2018-09-06T02:54:51.171Z,755
2018-09-06T02:55:58.392Z,755
2018-09-06T02:57:05.602Z,756
2018-09-06T02:58:12.818Z,754
2018-09-06T02:59:20.030Z,754
2018-09-06T03:00:26.978Z,754
2018-09-06T03:01:33.912Z,754
2018-09-06T03:02:41.122Z,753
2018-09-06T03:03:48.332Z,753
2018-09-06T03:04:55.544Z,753
2018-09-06T03:06:02.760Z,752
2018-09-06T03:07:09.972Z,752
2018-09-06T03:08:16.917Z,752
2018-09-06T03:09:23.858Z,752
2018-09-06T03:10:31.069Z,752
2018-09-06T03:11:38.283Z,753
2018-09-06T03:12:45.494Z,752
2018-09-06T03:13:52.434Z,752
2018-09-06T03:14:59.651Z,753
2018-09-06T03:16:06.861Z,751
2018-09-06T03:17:14.061Z,753
2018-09-06T03:18:21.271Z,752
2018-09-06T03:19:28.481Z,752
2018-09-06T03:20:35.687Z,753
2018-09-06T03:21:42.895Z,752
2018-09-06T03:22:49.833Z,752
2018-09-06T03:23:57.048Z,751
2018-09-06T03:25:04.259Z,752
2018-09-06T03:26:11.477Z,752
2018-09-06T03:27:18.692Z,752
2018-09-06T03:28:25.905Z,752
2018-09-06T03:29:33.123Z,751
2018-09-06T03:30:40.329Z,752
2018-09-06T03:31:47.545Z,752
2018-09-06T03:32:54.758Z,751
2018-09-06T03:34:01.694Z,751
2018-09-06T03:35:08.932Z,751
2018-09-06T03:36:16.146Z,750
2018-09-06T03:37:23.078Z,750
2018-09-06T03:38:30.293Z,751
2018-09-06T03:39:37.239Z,750
2018-09-06T03:40:44.452Z,751
2018-09-06T03:41:51.388Z,751
2018-09-06T03:42:58.599Z,750
2018-09-06T03:44:05.818Z,751
2018-09-06T03:45:12.748Z,750
2018-09-06T03:46:19.958Z,751
2018-09-06T03:47:27.167Z,751
2018-09-06T03:48:34.381Z,750
2018-09-06T03:49:41.586Z,751
2018-09-06T03:50:48.801Z,752
2018-09-06T03:51:56.010Z,750
2018-09-06T03:53:03.218Z,753
2018-09-06T03:54:10.436Z,751
2018-09-06T03:55:17.650Z,752
2018-09-06T03:56:24.858Z,752
2018-09-06T03:57:32.067Z,751
2018-09-06T03:58:39.278Z,753
2018-09-06T03:59:46.488Z,753
2018-09-06T04:00:53.703Z,753
2018-09-06T04:02:00.906Z,752
2018-09-06T04:03:08.116Z,753
2018-09-06T04:04:15.335Z,753
2018-09-06T04:05:22.557Z,753
2018-09-06T04:06:29.767Z,754
2018-09-06T04:07:36.977Z,754
2018-09-06T04:08:43.915Z,753
2018-09-06T04:09:50.851Z,754
2018-09-06T04:10:58.067Z,754
2018-09-06T04:12:05.285Z,754
2018-09-06T04:13:12.492Z,754
2018-09-06T04:14:19.707Z,753
2018-09-06T04:15:26.648Z,752
2018-09-06T04:16:33.855Z,753
2018-09-06T04:17:40.786Z,752
2018-09-06T04:18:47.729Z,758
2018-09-06T04:19:54.929Z,759
2018-09-06T04:21:02.140Z,761
2018-09-06T04:22:09.352Z,760
2018-09-06T04:23:16.560Z,759
2018-09-06T04:24:23.974Z,756
2018-09-06T04:25:31.378Z,756
2018-09-06T04:26:38.593Z,757
2018-09-06T04:27:45.799Z,755
2018-09-06T04:28:52.736Z,754
2018-09-06T04:29:59.943Z,753
2018-09-06T04:31:07.155Z,753
2018-09-06T04:32:14.422Z,754
2018-09-06T04:33:21.629Z,751
2018-09-06T04:34:28.844Z,759
2018-09-06T04:35:36.335Z,760
2018-09-06T04:36:43.760Z,759
2018-09-06T04:37:50.700Z,759
2018-09-06T04:38:57.904Z,761
2018-09-06T04:40:05.121Z,762
2018-09-06T04:41:12.061Z,760
2018-09-06T04:42:19.277Z,761
2018-09-06T04:43:26.493Z,760
2018-09-06T04:44:33.711Z,761
2018-09-06T04:45:40.925Z,761
2018-09-06T04:46:48.142Z,762
2018-09-06T04:47:55.380Z,761
2018-09-06T04:49:02.592Z,763
2018-09-06T04:50:09.798Z,761
2018-09-06T04:51:17.011Z,761
2018-09-06T04:52:24.220Z,762
2018-09-06T04:53:31.430Z,761
2018-09-06T04:54:38.365Z,761
2018-09-06T04:55:45.580Z,761
2018-09-06T04:56:52.789Z,762
2018-09-06T04:57:59.999Z,759
2018-09-06T04:59:07.217Z,761
2018-09-06T05:00:14.433Z,760
2018-09-06T05:01:21.792Z,759
2018-09-06T05:02:28.998Z,759
2018-09-06T05:03:36.212Z,761
2018-09-06T05:04:43.425Z,758
2018-09-06T05:05:50.367Z,759
2018-09-06T05:06:57.581Z,758
2018-09-06T05:08:04.511Z,759
2018-09-06T05:09:11.721Z,758
2018-09-06T05:10:18.932Z,759
2018-09-06T05:11:26.144Z,758
2018-09-06T05:12:33.360Z,759
2018-09-06T05:13:40.576Z,760
2018-09-06T05:14:47.784Z,758
2018-09-06T05:15:54.998Z,759
2018-09-06T05:17:02.211Z,759
2018-09-06T05:18:09.420Z,758
2018-09-06T05:19:16.627Z,757
2018-09-06T05:20:23.846Z,757
2018-09-06T05:21:30.790Z,757
2018-09-06T05:22:52.656Z,756
2018-09-06T05:23:59.861Z,757
2018-09-06T05:25:07.075Z,755
2018-09-06T05:26:14.285Z,755
2018-09-06T05:27:21.509Z,755
2018-09-06T05:28:28.717Z,753
2018-09-06T05:29:35.928Z,754
2018-09-06T05:30:43.000Z,753
2018-09-06T05:31:50.272Z,750
2018-09-06T05:32:57.485Z,750
2018-09-06T05:34:04.693Z,750
2018-09-06T05:35:12.279Z,748
2018-09-06T05:36:19.842Z,747
2018-09-06T05:37:27.092Z,745
2018-09-06T05:38:34.299Z,744
2018-09-06T05:39:41.507Z,742
2018-09-06T05:40:48.720Z,740
2018-09-06T05:41:55.929Z,739
2018-09-06T05:43:03.135Z,737
2018-09-06T05:44:10.341Z,736
2018-09-06T05:45:17.568Z,735
2018-09-06T05:46:24.764Z,735
2018-09-06T05:47:32.287Z,735
2018-09-06T05:48:39.638Z,735
2018-09-06T05:49:46.845Z,734
2018-09-06T05:50:54.054Z,734
2018-09-06T05:52:00.985Z,735
2018-09-06T05:53:08.206Z,734
2018-09-06T05:54:15.417Z,735
2018-09-06T05:55:22.631Z,736
2018-09-06T05:56:29.840Z,736
2018-09-06T05:57:37.052Z,735
2018-09-06T05:58:44.264Z,736
2018-09-06T05:59:51.541Z,735
2018-09-06T06:00:58.888Z,736
2018-09-06T06:02:06.103Z,736
2018-09-06T06:03:13.315Z,736
2018-09-06T06:04:20.527Z,736
2018-09-06T06:05:27.746Z,736
2018-09-06T06:06:34.956Z,736
2018-09-06T06:07:42.170Z,736
2018-09-06T06:08:49.382Z,736
2018-09-06T06:09:56.593Z,737
2018-09-06T06:11:03.269Z,737
2018-09-06T06:12:10.484Z,737
2018-09-06T06:13:17.699Z,738
2018-09-06T06:14:24.914Z,738
2018-09-06T06:15:32.128Z,738
2018-09-06T06:16:38.809Z,737
2018-09-06T06:17:46.050Z,738
2018-09-06T06:18:53.260Z,736
2018-09-06T06:20:00.773Z,739
2018-09-06T06:21:08.080Z,739
2018-09-06T06:22:15.426Z,739
2018-09-06T06:23:22.669Z,738
2018-09-06T06:24:29.625Z,738
2018-09-06T06:25:36.834Z,737
2018-09-06T06:26:44.045Z,738
2018-09-06T06:27:51.290Z,739
2018-09-06T06:28:58.503Z,738
2018-09-06T06:30:05.716Z,737
2018-09-06T06:31:12.930Z,739
2018-09-06T06:32:20.342Z,739
2018-09-06T06:33:27.758Z,738
2018-09-06T06:34:34.698Z,738
2018-09-06T06:35:41.915Z,739
2018-09-06T06:36:49.128Z,737
2018-09-06T06:37:56.347Z,738
2018-09-06T06:39:03.555Z,741
2018-09-06T06:40:10.769Z,740
2018-09-06T06:41:17.982Z,740
2018-09-06T06:42:25.200Z,738
2018-09-06T06:43:32.413Z,740
2018-09-06T06:44:39.633Z,741
2018-09-06T06:45:46.841Z,739
2018-09-06T06:46:54.056Z,739
2018-09-06T06:48:01.268Z,740
2018-09-06T06:49:08.479Z,740
2018-09-06T06:50:15.805Z,740
2018-09-06T06:51:23.043Z,741
2018-09-06T06:52:30.256Z,739
2018-09-06T06:53:37.468Z,739
2018-09-06T06:54:44.412Z,741
2018-09-06T06:55:51.626Z,738
2018-09-06T06:56:58.840Z,739
2018-09-06T06:58:06.082Z,739
2018-09-06T06:59:13.306Z,740
2018-09-06T07:00:20.522Z,739
2018-09-06T07:01:27.731Z,739
2018-09-06T07:02:34.947Z,738
2018-09-06T07:03:42.162Z,739
2018-09-06T07:04:49.104Z,740
2018-09-06T07:05:56.323Z,741
2018-09-06T07:07:03.945Z,739
2018-09-06T07:08:11.409Z,739
2018-09-06T07:09:18.626Z,739
2018-09-06T07:10:25.837Z,738
2018-09-06T07:11:32.780Z,737
2018-09-06T07:12:40.000Z,738
2018-09-06T07:13:47.209Z,738
2018-09-06T07:14:54.425Z,738
2018-09-06T07:16:01.674Z,737
2018-09-06T07:17:08.891Z,738
2018-09-06T07:18:16.406Z,740
2018-09-06T07:19:23.780Z,740
2018-09-06T07:20:30.994Z,738
2018-09-06T07:21:38.212Z,740
2018-09-06T07:22:45.424Z,739
2018-09-06T07:23:52.375Z,740
2018-09-06T07:24:59.591Z,739
2018-09-06T07:26:06.850Z,737
2018-09-06T07:27:14.064Z,738
2018-09-06T07:28:21.278Z,737
2018-09-06T07:29:28.499Z,736
2018-09-06T07:30:35.569Z,737
2018-09-06T07:31:42.831Z,737
2018-09-06T07:32:50.041Z,738
2018-09-06T07:33:57.262Z,738
2018-09-06T07:35:04.532Z,738
2018-09-06T07:36:11.733Z,738
2018-09-06T07:37:18.956Z,738
2018-09-06T07:38:26.176Z,738
2018-09-06T07:39:33.393Z,738
2018-09-06T07:40:40.610Z,738
2018-09-06T07:41:47.828Z,738
2018-09-06T07:42:55.045Z,739
2018-09-06T07:44:02.264Z,738
2018-09-06T07:45:09.482Z,738
2018-09-06T07:46:16.699Z,737
2018-09-06T07:47:23.908Z,736
2018-09-06T07:48:30.889Z,736
2018-09-06T07:49:38.110Z,736
2018-09-06T07:50:45.324Z,737
2018-09-06T07:51:52.265Z,737
2018-09-06T07:52:59.481Z,737
2018-09-06T07:54:06.705Z,736
2018-09-06T07:55:13.965Z,737
2018-09-06T07:56:21.173Z,735
2018-09-06T07:57:28.388Z,735
2018-09-06T07:58:35.616Z,734
2018-09-06T07:59:42.827Z,736
2018-09-06T08:00:50.043Z,735
2018-09-06T08:01:57.256Z,733
2018-09-06T08:03:04.473Z,734
2018-09-06T08:04:11.692Z,734
2018-09-06T08:05:18.908Z,737
2018-09-06T08:06:26.124Z,736
2018-09-06T08:07:33.343Z,735
2018-09-06T08:08:40.571Z,735
2018-09-06T08:09:47.789Z,736
2018-09-06T08:10:55.013Z,735
2018-09-06T08:12:02.301Z,735
2018-09-06T08:13:09.586Z,734
2018-09-06T08:14:16.808Z,735
2018-09-06T08:15:24.028Z,732
2018-09-06T08:16:31.245Z,730
2018-09-06T08:17:38.464Z,729
2018-09-06T08:18:45.773Z,730
2018-09-06T08:19:52.994Z,729
2018-09-06T08:21:00.208Z,727
2018-09-06T08:22:07.158Z,728
2018-09-06T08:23:14.372Z,729
2018-09-06T08:24:21.977Z,729
2018-09-06T08:25:29.115Z,730
2018-09-06T08:26:36.327Z,731
2018-09-06T08:27:43.543Z,732
2018-09-06T08:28:50.777Z,729
2018-09-06T08:29:57.717Z,730
2018-09-06T08:31:05.446Z,731
2018-09-06T08:32:12.894Z,731
2018-09-06T08:33:19.841Z,731
2018-09-06T08:34:27.069Z,731
2018-09-06T08:35:34.284Z,729
2018-09-06T08:36:41.580Z,730
2018-09-06T08:37:48.787Z,730
2018-09-06T08:38:55.463Z,729
2018-09-06T08:40:02.680Z,729
2018-09-06T08:41:09.895Z,730
2018-09-06T08:42:17.168Z,731
2018-09-06T08:43:24.388Z,730
2018-09-06T08:44:31.613Z,729
2018-09-06T08:45:38.827Z,730
2018-09-06T08:46:46.041Z,731
2018-09-06T08:47:53.307Z,730
2018-09-06T08:49:00.536Z,733
2018-09-06T08:50:07.483Z,734
2018-09-06T08:51:14.702Z,732
2018-09-06T08:52:22.006Z,732
2018-09-06T08:53:29.331Z,732
2018-09-06T08:54:36.556Z,727
2018-09-06T08:55:43.771Z,728
2018-09-06T08:56:50.993Z,728
2018-09-06T08:57:57.948Z,729
2018-09-06T08:59:05.170Z,730
2018-09-06T09:00:12.415Z,729
2018-09-06T09:01:19.630Z,727
2018-09-06T09:02:27.343Z,728
2018-09-06T09:03:34.682Z,728
2018-09-06T09:04:42.134Z,730
2018-09-06T09:05:49.555Z,730
2018-09-06T09:06:56.780Z,728
2018-09-06T09:08:03.999Z,728
2018-09-06T09:09:10.664Z,726
2018-09-06T09:10:17.886Z,727
2018-09-06T09:11:25.109Z,726
2018-09-06T09:12:32.611Z,728
2018-09-06T09:13:39.986Z,727
2018-09-06T09:14:47.208Z,727
2018-09-06T09:15:54.169Z,729
2018-09-06T09:17:01.393Z,727
2018-09-06T09:18:08.609Z,725
2018-09-06T09:19:15.841Z,726
2018-09-06T09:20:23.069Z,725
2018-09-06T09:21:30.374Z,726
2018-09-06T09:22:37.588Z,725
2018-09-06T09:23:44.809Z,727
2018-09-06T09:24:52.042Z,726
2018-09-06T09:25:59.257Z,726
2018-09-06T09:27:06.238Z,727
2018-09-06T09:28:13.206Z,728
2018-09-06T09:29:20.424Z,725
2018-09-06T09:30:27.816Z,727
2018-09-06T09:31:35.075Z,726
2018-09-06T09:32:42.028Z,723
2018-09-06T09:33:49.249Z,722
2018-09-06T09:34:56.465Z,719
2018-09-06T09:36:03.883Z,724
2018-09-06T09:37:10.976Z,722
2018-09-06T09:38:18.193Z,723
2018-09-06T09:39:25.428Z,722
2018-09-06T09:40:32.648Z,720
2018-09-06T09:41:39.868Z,724
2018-09-06T09:42:47.090Z,722
2018-09-06T09:43:54.313Z,722
2018-09-06T09:45:01.530Z,719
2018-09-06T09:48:21.102Z,721
2018-09-06T09:49:28.578Z,722
2018-09-06T09:51:41.941Z,723
2018-09-06T09:52:49.161Z,719
2018-09-06T09:53:56.383Z,719
2018-09-06T09:55:03.607Z,719
2018-09-06T09:56:10.849Z,720
2018-09-06T09:57:32.719Z,717
2018-09-06T09:58:39.936Z,716
2018-09-06T09:59:47.153Z,718
2018-09-06T10:00:54.371Z,716
2018-09-06T10:02:01.586Z,715
2018-09-06T10:03:08.869Z,715
2018-09-06T10:04:16.093Z,713
2018-09-06T10:05:23.318Z,711
2018-09-06T10:06:30.807Z,712
2018-09-06T10:07:37.899Z,714
2018-09-06T10:08:44.572Z,714
2018-09-06T10:09:51.793Z,711
2018-09-06T10:10:59.025Z,714
2018-09-06T10:12:06.249Z,711
2018-09-06T10:13:13.474Z,706
2018-09-06T10:14:20.696Z,704
2018-09-06T10:15:27.641Z,701
2018-09-06T10:16:34.862Z,703
2018-09-06T10:17:41.800Z,702
2018-09-06T10:18:49.020Z,703
2018-09-06T10:19:56.237Z,701
2018-09-06T10:21:03.459Z,702
2018-09-06T10:22:10.677Z,700
2018-09-06T10:23:17.902Z,700
2018-09-06T10:24:24.846Z,700
2018-09-06T10:25:32.063Z,699
2018-09-06T10:26:39.298Z,701
2018-09-06T10:27:46.514Z,700
2018-09-06T10:28:53.735Z,698
2018-09-06T10:30:00.962Z,698
2018-09-06T10:31:08.184Z,697
2018-09-06T10:32:15.416Z,696
2018-09-06T10:33:22.640Z,696
2018-09-06T10:34:29.867Z,703
2018-09-06T10:35:37.091Z,703
2018-09-06T10:36:44.310Z,705
2018-09-06T10:37:51.526Z,707
2018-09-06T10:38:58.468Z,707
2018-09-06T10:40:06.059Z,700
2018-09-06T10:41:13.501Z,698
2018-09-06T10:42:20.724Z,703
2018-09-06T10:43:27.948Z,705
2018-09-06T10:44:34.890Z,705
2018-09-06T10:45:41.840Z,702
2018-09-06T10:46:49.060Z,701
2018-09-06T10:47:56.477Z,696
2018-09-06T10:49:03.811Z,693
2018-09-06T10:50:11.032Z,688
2018-09-06T10:51:18.255Z,692
2018-09-06T10:52:25.204Z,697
2018-09-06T10:53:32.415Z,692
2018-09-06T10:54:39.637Z,697
2018-09-06T10:55:46.855Z,700
2018-09-06T10:56:53.797Z,698
2018-09-06T10:58:01.016Z,700
2018-09-06T10:59:08.245Z,700
2018-09-06T11:00:15.191Z,701
2018-09-06T11:01:22.425Z,697
2018-09-06T11:02:29.651Z,692
2018-09-06T11:03:36.869Z,690
2018-09-06T11:04:44.092Z,698
2018-09-06T11:05:51.310Z,701
2018-09-06T11:06:58.535Z,705
2018-09-06T11:08:06.351Z,707
2018-09-06T11:09:13.817Z,707
2018-09-06T11:10:21.034Z,706
2018-09-06T11:11:28.249Z,703
2018-09-06T11:12:35.467Z,700
2018-09-06T11:13:42.687Z,701
2018-09-06T11:14:49.627Z,703
2018-09-06T11:15:56.843Z,700
2018-09-06T11:17:04.061Z,695
2018-09-06T11:18:11.422Z,685
2018-09-06T11:19:18.666Z,679
2018-09-06T11:20:25.894Z,681
2018-09-06T11:21:33.714Z,688
2018-09-06T11:22:41.744Z,685
2018-09-06T11:23:49.344Z,687
2018-09-06T11:24:56.566Z,696
2018-09-06T11:26:03.512Z,692
2018-09-06T11:27:10.733Z,692
2018-09-06T11:28:17.951Z,685
2018-09-06T11:29:25.182Z,684
2018-09-06T11:30:32.469Z,689
2018-09-06T11:31:39.685Z,695
2018-09-06T11:32:46.902Z,705
2018-09-06T11:33:53.853Z,714
2018-09-06T11:35:01.079Z,715
2018-09-06T11:36:08.295Z,700
2018-09-06T11:37:15.514Z,695
2018-09-06T11:38:22.738Z,688
2018-09-06T11:39:29.956Z,683
2018-09-06T11:40:37.177Z,683
2018-09-06T11:41:44.403Z,681
2018-09-06T11:42:51.629Z,674
2018-09-06T11:43:58.850Z,669
2018-09-06T11:45:05.787Z,675
2018-09-06T11:46:13.004Z,677
2018-09-06T11:47:20.430Z,681
2018-09-06T11:48:27.978Z,681
2018-09-06T11:49:35.230Z,680
2018-09-06T11:50:42.441Z,682
2018-09-06T11:51:49.389Z,682
2018-09-06T11:52:56.330Z,697
2018-09-06T11:54:03.266Z,706
2018-09-06T11:55:10.489Z,711
2018-09-06T11:56:17.714Z,715
2018-09-06T11:57:24.931Z,715
2018-09-06T11:58:32.152Z,711
2018-09-06T11:59:39.372Z,711
2018-09-06T12:00:46.590Z,712
2018-09-06T12:01:53.550Z,705
2018-09-06T12:03:00.758Z,707
2018-09-06T12:04:07.978Z,698
2018-09-06T12:05:14.925Z,700
2018-09-06T12:06:21.876Z,702
2018-09-06T12:07:29.095Z,696
2018-09-06T12:08:36.320Z,684
2018-09-06T12:09:43.270Z,678
2018-09-06T12:10:50.493Z,671
2018-09-06T12:11:57.444Z,662
2018-09-06T12:13:04.668Z,680
2018-09-06T12:14:11.617Z,700
2018-09-06T12:15:18.780Z,706
2018-09-06T12:16:25.995Z,707
2018-09-06T12:17:33.215Z,709
2018-09-06T12:18:40.462Z,714
2018-09-06T12:19:47.669Z,715
2018-09-06T12:20:54.890Z,716
2018-09-06T12:22:02.114Z,720
2018-09-06T12:23:09.335Z,721
2018-09-06T12:24:16.552Z,722
2018-09-06T12:25:24.011Z,723
2018-09-06T12:26:31.481Z,722
2018-09-06T12:27:38.705Z,721
2018-09-06T12:28:45.930Z,719
2018-09-06T12:29:53.148Z,721
2018-09-06T12:31:00.364Z,721
2018-09-06T12:32:07.755Z,723
2018-09-06T12:33:14.966Z,721
2018-09-06T12:34:22.246Z,722
2018-09-06T12:35:29.465Z,723
2018-09-06T12:36:36.688Z,723
2018-09-06T12:37:43.920Z,722
2018-09-06T12:38:51.141Z,720
2018-09-06T12:39:58.366Z,720
2018-09-06T12:41:05.588Z,720
2018-09-06T12:42:12.810Z,719
2018-09-06T12:43:20.028Z,718
2018-09-06T12:44:27.245Z,718
2018-09-06T12:45:34.476Z,717
2018-09-06T12:46:41.704Z,718
2018-09-06T12:47:48.946Z,718
2018-09-06T12:48:56.173Z,718
2018-09-06T12:50:03.412Z,717
2018-09-06T12:51:10.622Z,716
2018-09-06T12:52:17.842Z,715
2018-09-06T12:53:24.824Z,716
2018-09-06T12:54:32.047Z,716
2018-09-06T12:55:39.262Z,716
2018-09-06T12:56:46.483Z,717
2018-09-06T12:57:53.716Z,717
2018-09-06T12:59:00.927Z,718
2018-09-06T13:00:07.598Z,718
2018-09-06T13:01:14.824Z,721
2018-09-06T13:02:22.053Z,720
2018-09-06T13:03:29.293Z,719
2018-09-06T13:04:36.237Z,720
2018-09-06T13:05:43.457Z,721
2018-09-06T13:06:50.689Z,721
2018-09-06T13:07:57.742Z,721
2018-09-06T13:09:04.654Z,721
2018-09-06T13:10:11.871Z,721
2018-09-06T13:11:18.821Z,720
2018-09-06T13:12:26.055Z,721
2018-09-06T13:13:33.006Z,722
2018-09-06T13:14:39.949Z,722
2018-09-06T13:15:47.171Z,723
2018-09-06T13:16:54.115Z,723
2018-09-06T13:18:01.332Z,724
2018-09-06T13:19:08.555Z,724
2018-09-06T13:20:15.777Z,725
2018-09-06T13:21:22.998Z,724
2018-09-06T13:22:30.215Z,724
2018-09-06T13:23:37.444Z,723
2018-09-06T13:24:44.399Z,724
2018-09-06T13:25:51.344Z,725
2018-09-06T13:26:58.569Z,724
2018-09-06T13:28:05.801Z,723
2018-09-06T13:29:13.012Z,723
2018-09-06T13:30:20.233Z,725
2018-09-06T13:31:27.454Z,725
2018-09-06T13:32:34.676Z,726
2018-09-06T13:33:41.902Z,729
2018-09-06T13:34:49.130Z,731
2018-09-06T13:35:56.402Z,732
2018-09-06T13:37:03.616Z,723
2018-09-06T13:38:10.848Z,727
2018-09-06T13:39:18.076Z,734
2018-09-06T13:40:25.300Z,728
2018-09-06T13:41:32.534Z,730
2018-09-06T13:42:39.760Z,698
2018-09-06T13:43:46.985Z,693
2018-09-06T13:44:54.215Z,698
2018-09-06T13:46:01.437Z,682
2018-09-06T13:47:08.654Z,719
2018-09-06T13:48:15.896Z,742
2018-09-06T13:49:23.113Z,730
2018-09-06T13:50:30.335Z,717
2018-09-06T13:51:37.556Z,696
2018-09-06T13:52:44.770Z,656
2018-09-06T13:53:51.459Z,504
2018-09-06T13:54:58.683Z,541
2018-09-06T13:56:05.925Z,556
2018-09-06T13:57:13.150Z,575
2018-09-06T13:58:20.483Z,573
2018-09-06T13:59:27.740Z,583
2018-09-06T14:00:34.966Z,579
2018-09-06T14:01:42.197Z,580
2018-09-06T14:02:49.417Z,591
2018-09-06T14:03:56.652Z,582
2018-09-06T14:05:04.007Z,588
2018-09-06T14:06:11.313Z,585
2018-09-06T14:07:18.545Z,586
2018-09-06T14:08:25.509Z,584
2018-09-06T14:09:32.735Z,584
2018-09-06T14:10:39.956Z,593
2018-09-06T14:11:47.185Z,596
2018-09-06T14:12:54.461Z,588
2018-09-06T14:14:01.692Z,596
2018-09-06T14:15:08.915Z,599
2018-09-06T14:16:16.147Z,596
2018-09-06T14:17:23.376Z,597
2018-09-06T14:18:30.595Z,610
2018-09-06T14:19:37.832Z,635
2018-09-06T14:20:45.052Z,641
2018-09-06T14:21:51.996Z,634
2018-09-06T14:22:59.213Z,623
2018-09-06T14:24:06.658Z,630
2018-09-06T14:25:13.932Z,635
2018-09-06T14:26:21.157Z,643
2018-09-06T14:27:28.388Z,653
2018-09-06T14:28:35.620Z,643
2018-09-06T14:29:42.844Z,647
2018-09-06T14:30:50.067Z,648
2018-09-06T14:31:57.443Z,660
2018-09-06T14:33:04.389Z,682
2018-09-06T14:34:11.611Z,661
2018-09-06T14:35:18.839Z,660
2018-09-06T14:36:26.059Z,658
2018-09-06T14:37:33.287Z,662
2018-09-06T14:38:40.609Z,662
2018-09-06T14:39:48.041Z,660
2018-09-06T14:40:54.983Z,660
2018-09-06T14:42:02.202Z,661
2018-09-06T14:43:09.420Z,664
2018-09-06T14:44:16.647Z,662
2018-09-06T14:45:23.857Z,663
2018-09-06T14:46:30.808Z,662
2018-09-06T14:47:38.032Z,662
2018-09-06T14:48:45.262Z,662
2018-09-06T14:49:52.477Z,663
2018-09-06T14:50:59.440Z,657
2018-09-06T14:52:06.660Z,660
2018-09-06T14:53:13.328Z,651
2018-09-06T14:54:20.555Z,650
2018-09-06T14:55:27.783Z,654
2018-09-06T14:56:35.008Z,649
2018-09-06T14:57:41.969Z,651
2018-09-06T14:58:49.187Z,656
2018-09-06T14:59:56.405Z,655
2018-09-06T15:01:03.357Z,654
2018-09-06T15:02:10.574Z,653
2018-09-06T15:03:17.838Z,650
2018-09-06T15:04:25.057Z,651
2018-09-06T15:05:32.273Z,647
2018-09-06T15:06:39.220Z,646
2018-09-06T15:07:46.439Z,646
2018-09-06T15:08:53.661Z,650
2018-09-06T15:10:00.884Z,652
2018-09-06T15:11:07.830Z,650
2018-09-06T15:12:15.045Z,656
2018-09-06T15:13:22.275Z,676
2018-09-06T15:14:29.508Z,670
2018-09-06T15:15:36.727Z,668
2018-09-06T15:16:43.963Z,665
2018-09-06T15:17:50.900Z,669
2018-09-06T15:18:58.125Z,675
2018-09-06T15:20:05.514Z,665
2018-09-06T15:21:12.909Z,666
2018-09-06T15:22:19.860Z,666
2018-09-06T15:23:27.080Z,665
2018-09-06T15:24:34.049Z,668
2018-09-06T15:25:41.268Z,670
2018-09-06T15:26:48.485Z,668
2018-09-06T15:27:56.002Z,671
2018-09-06T15:29:03.270Z,669
2018-09-06T15:30:10.488Z,658